createdAt,value
2019-06-08T00:02:27.628Z,61.29
2019-06-08T00:04:59.835Z,61.37
2019-06-08T00:07:35.544Z,61.31
2019-06-08T00:10:07.751Z,61.69
2019-06-08T00:12:40.009Z,61.79
2019-06-08T00:15:12.215Z,61.50
2019-06-08T00:17:44.423Z,61.43
2019-06-08T00:20:17.671Z,61.03
2019-06-08T00:22:50.107Z,62.04
2019-06-08T00:25:22.597Z,63.01
2019-06-08T00:27:54.875Z,63.87
2019-06-08T00:30:29.159Z,65.02
2019-06-08T00:33:01.198Z,66.57
2019-06-08T00:35:33.439Z,65.51
2019-06-08T00:38:05.641Z,66.27
2019-06-08T00:40:37.927Z,65.30
2019-06-08T00:43:10.153Z,66.06
2019-06-08T00:45:42.363Z,64.20
2019-06-08T00:48:14.608Z,63.77
2019-06-08T00:50:46.853Z,64.01
2019-06-08T00:53:19.765Z,65.40
2019-06-08T00:55:52.171Z,66.09
2019-06-08T00:58:24.399Z,65.28
2019-06-08T01:00:56.440Z,65.28
2019-06-08T01:03:29.986Z,64.77
2019-06-08T01:06:02.312Z,63.78
2019-06-08T01:08:34.581Z,64.02
2019-06-08T01:11:06.859Z,62.58
2019-06-08T01:13:39.077Z,62.30
2019-06-08T01:16:11.300Z,61.87
2019-06-08T01:18:43.920Z,61.98
2019-06-08T01:21:16.142Z,61.11
2019-06-08T01:23:48.361Z,61.16
2019-06-08T01:26:22.149Z,60.69
2019-06-08T01:28:54.595Z,60.15
2019-06-08T01:31:26.840Z,59.79
2019-06-08T01:33:59.098Z,60.17
2019-06-08T01:36:31.330Z,59.35
2019-06-08T01:39:04.940Z,59.21
2019-06-08T01:41:37.656Z,59.14
2019-06-08T01:44:09.924Z,59.47
2019-06-08T01:46:42.143Z,58.96
2019-06-08T01:49:14.365Z,58.84
2019-06-08T01:51:46.614Z,58.41
2019-06-08T01:54:18.834Z,58.29
2019-06-08T01:56:52.383Z,57.73
2019-06-08T01:59:25.299Z,57.75
2019-06-08T02:01:57.785Z,58.16
2019-06-08T02:04:30.232Z,57.80
2019-06-08T02:07:02.621Z,57.44
2019-06-08T02:09:34.990Z,57.31
2019-06-08T02:12:07.152Z,57.73
2019-06-08T02:14:39.420Z,57.59
2019-06-08T02:17:11.656Z,57.81
2019-06-08T02:19:43.876Z,57.72
2019-06-08T02:22:16.116Z,57.63
2019-06-08T02:24:48.353Z,57.82
2019-06-08T02:27:20.549Z,57.66
2019-06-08T02:29:52.826Z,57.73
2019-06-08T02:32:25.045Z,57.59
2019-06-08T02:34:57.284Z,57.88
2019-06-08T02:37:30.793Z,57.61
2019-06-08T02:40:03.308Z,57.46
2019-06-08T02:42:37.201Z,57.67
2019-06-08T02:45:09.642Z,57.32
2019-06-08T02:47:41.886Z,57.58
2019-06-08T02:50:14.141Z,57.31
2019-06-08T02:52:48.601Z,57.56
2019-06-08T02:55:20.866Z,57.33
2019-06-08T02:57:53.088Z,57.40
2019-06-08T03:00:27.354Z,57.45
2019-06-08T03:03:00.013Z,57.39
2019-06-08T03:05:33.979Z,57.18
2019-06-08T03:08:06.386Z,57.33
2019-06-08T03:10:39.285Z,57.47
2019-06-08T03:13:11.789Z,57.24
2019-06-08T03:15:44.020Z,57.31
2019-06-08T03:18:16.243Z,57.37
2019-06-08T03:20:48.486Z,57.59
2019-06-08T03:23:20.955Z,57.01
2019-06-08T03:25:53.637Z,57.16
2019-06-08T03:28:25.927Z,57.14
2019-06-08T03:30:58.144Z,57.19
2019-06-08T03:33:30.346Z,56.88
2019-06-08T03:36:02.658Z,57.03
2019-06-08T03:38:37.632Z,56.88
2019-06-08T03:41:10.411Z,56.82
2019-06-08T03:43:42.667Z,56.67
2019-06-08T03:46:14.933Z,56.70
2019-06-08T03:48:47.162Z,56.55
2019-06-08T03:51:19.413Z,57.04
2019-06-08T03:53:51.662Z,56.80
2019-06-08T03:56:23.904Z,56.70
2019-06-08T03:58:56.129Z,56.75
2019-06-08T04:01:28.347Z,56.74
2019-06-08T04:04:00.626Z,56.49
2019-06-08T04:06:32.919Z,56.93
2019-06-08T04:09:05.125Z,57.01
2019-06-08T04:11:37.822Z,57.14
2019-06-08T04:14:10.157Z,57.13
2019-06-08T04:16:44.388Z,57.35
2019-06-08T04:19:16.750Z,57.44
2019-06-08T04:21:50.657Z,57.73
2019-06-08T04:24:25.305Z,57.94
2019-06-08T04:26:57.521Z,57.75
2019-06-08T04:29:29.770Z,57.58
2019-06-08T04:32:02.061Z,57.75
2019-06-08T04:34:35.269Z,57.88
2019-06-08T04:37:07.496Z,58.06
2019-06-08T04:39:40.264Z,57.96
2019-06-08T04:42:12.528Z,58.19
2019-06-08T04:44:46.749Z,59.77
2019-06-08T04:47:18.696Z,61.53
2019-06-08T04:49:51.010Z,62.08
2019-06-08T04:52:23.269Z,62.25
2019-06-08T04:54:57.511Z,61.90
2019-06-08T04:57:29.581Z,61.94
2019-06-08T05:00:11.311Z,61.31
2019-06-08T05:02:39.122Z,60.91
2019-06-08T05:05:11.106Z,60.62
2019-06-08T05:07:44.274Z,60.37
2019-06-08T05:10:17.287Z,59.89
2019-06-08T05:12:50.310Z,60.13
2019-06-08T05:15:22.677Z,59.77
2019-06-08T05:17:54.994Z,59.82
2019-06-08T05:20:38.245Z,60.32
2019-06-08T05:23:01.296Z,60.00
2019-06-08T05:25:33.495Z,59.95
2019-06-08T05:28:05.792Z,59.54
2019-06-08T05:30:39.309Z,59.61
2019-06-08T05:33:12.640Z,59.61
2019-06-08T05:35:45.498Z,59.58
2019-06-08T05:38:17.903Z,59.40
2019-06-08T05:40:50.111Z,59.13
2019-06-08T05:43:23.427Z,59.77
2019-06-08T05:45:55.640Z,59.76
2019-06-08T05:48:27.881Z,59.91
2019-06-08T05:51:03.992Z,60.07
2019-06-08T05:53:35.247Z,60.57
2019-06-08T05:56:07.496Z,61.10
2019-06-08T05:58:39.878Z,61.40
2019-06-08T06:01:13.129Z,61.43
2019-06-08T06:03:46.546Z,61.59
2019-06-08T06:06:18.870Z,61.97
2019-06-08T06:08:51.373Z,62.39
2019-06-08T06:11:23.627Z,62.79
2019-06-08T06:13:56.148Z,63.14
2019-06-08T06:16:28.502Z,63.37
2019-06-08T06:19:00.566Z,63.46
2019-06-08T06:21:32.872Z,63.60
2019-06-08T06:24:05.054Z,63.86
2019-06-08T06:26:37.290Z,64.31
2019-06-08T06:29:09.681Z,64.02
2019-06-08T06:31:41.965Z,63.93
2019-06-08T06:34:14.147Z,63.59
2019-06-08T06:36:47.694Z,63.68
2019-06-08T06:39:20.025Z,63.96
2019-06-08T06:41:52.308Z,63.72
2019-06-08T06:44:24.641Z,63.75
2019-06-08T06:46:56.925Z,63.67
2019-06-08T06:49:30.694Z,63.72
2019-06-08T06:52:02.805Z,63.69
2019-06-08T06:54:35.012Z,64.27
2019-06-08T06:57:07.224Z,64.48
2019-06-08T06:59:39.491Z,65.26
2019-06-08T07:02:11.714Z,66.67
2019-06-08T07:04:43.912Z,68.81
2019-06-08T07:07:16.210Z,70.79
2019-06-08T07:09:48.450Z,71.61
2019-06-08T07:12:20.737Z,72.04
2019-06-08T07:14:53.310Z,72.82
2019-06-08T07:17:25.571Z,72.94
2019-06-08T07:19:58.920Z,73.04
2019-06-08T07:22:31.302Z,71.66
2019-06-08T07:25:03.983Z,71.46
2019-06-08T07:27:36.241Z,70.68
2019-06-08T07:30:08.507Z,70.79
2019-06-08T07:32:40.899Z,70.48
2019-06-08T07:35:13.124Z,70.61
2019-06-08T07:37:45.359Z,70.53
2019-06-08T07:40:17.603Z,70.98
2019-06-08T07:42:51.475Z,72.38
2019-06-08T07:45:23.862Z,73.66
2019-06-08T07:47:56.158Z,74.63
2019-06-08T07:50:28.375Z,75.54
2019-06-08T07:53:00.633Z,75.60
2019-06-08T07:55:32.870Z,75.49
2019-06-08T07:58:05.081Z,75.57
2019-06-08T08:00:37.382Z,75.32
2019-06-08T08:03:09.653Z,74.54
2019-06-08T08:05:41.970Z,73.99
2019-06-08T08:08:14.168Z,74.40
2019-06-08T08:10:46.466Z,74.49
2019-06-08T08:13:18.747Z,75.09
2019-06-08T08:15:51.166Z,73.91
2019-06-08T08:18:23.960Z,74.77
2019-06-08T08:21:00.957Z,75.44
2019-06-08T08:23:30.220Z,76.06
2019-06-08T08:26:02.494Z,75.17
2019-06-08T08:28:34.732Z,75.18
2019-06-08T08:31:07.805Z,74.57
2019-06-08T08:33:40.932Z,74.58
2019-06-08T08:36:13.189Z,72.99
2019-06-08T08:38:47.706Z,72.04
2019-06-08T08:41:19.592Z,71.80
2019-06-08T08:43:53.199Z,70.63
2019-06-08T08:46:28.580Z,70.57
2019-06-08T08:49:09.093Z,70.44
2019-06-08T08:51:34.633Z,69.98
2019-06-08T08:54:08.432Z,69.22
2019-06-08T08:56:41.036Z,69.41
2019-06-08T08:59:13.257Z,68.70
2019-06-08T09:01:45.488Z,67.61
2019-06-08T09:04:18.586Z,67.62
2019-06-08T09:06:52.419Z,66.88
2019-06-08T09:09:25.357Z,66.66
2019-06-08T09:12:02.297Z,66.38
2019-06-08T09:14:31.511Z,65.29
2019-06-08T09:17:04.192Z,64.76
2019-06-08T09:19:38.362Z,64.68
2019-06-08T09:22:10.997Z,64.37
2019-06-08T09:24:43.268Z,63.26
2019-06-08T09:27:17.753Z,63.29
2019-06-08T09:29:49.539Z,63.13
2019-06-08T09:32:23.112Z,63.85
2019-06-08T09:35:02.344Z,64.12
2019-06-08T09:37:33.445Z,63.59
2019-06-08T09:40:05.686Z,62.20
2019-06-08T09:42:37.936Z,61.60
2019-06-08T09:45:11.552Z,60.94
2019-06-08T09:47:43.809Z,61.52
2019-06-08T09:50:18.515Z,61.10
2019-06-08T09:53:02.487Z,61.07
2019-06-08T09:55:24.565Z,60.89
2019-06-08T09:58:03.962Z,62.04
2019-06-08T10:00:31.325Z,62.93
2019-06-08T10:03:06.163Z,61.95
2019-06-08T10:05:38.871Z,61.61
2019-06-08T10:08:11.409Z,61.40
2019-06-08T10:10:43.622Z,61.88
2019-06-08T10:13:18.895Z,63.88
2019-06-08T10:15:51.564Z,65.81
2019-06-08T10:18:24.274Z,65.98
2019-06-08T10:20:59.595Z,65.68
2019-06-08T10:23:34.392Z,64.87
2019-06-08T10:26:05.283Z,64.92
2019-06-08T10:28:39.094Z,63.91
2019-06-08T10:31:11.411Z,62.13
2019-06-08T10:33:43.726Z,60.14
2019-06-08T10:36:18.134Z,58.12
2019-06-08T10:38:50.082Z,57.23
2019-06-08T10:41:22.329Z,56.89
2019-06-08T10:43:57.150Z,56.99
2019-06-08T10:46:29.603Z,56.61
2019-06-08T10:49:02.386Z,57.65
2019-06-08T10:51:40.165Z,56.82
2019-06-08T10:54:11.462Z,55.53
2019-06-08T10:56:44.407Z,54.72
2019-06-08T10:59:18.571Z,54.69
2019-06-08T11:01:50.710Z,55.58
2019-06-08T11:04:23.186Z,56.45
2019-06-08T11:06:58.032Z,55.26
2019-06-08T11:09:29.558Z,55.28
2019-06-08T11:12:03.213Z,55.43
2019-06-08T11:14:38.210Z,55.58
2019-06-08T11:17:10.984Z,55.74
2019-06-08T11:19:43.636Z,56.94
2019-06-08T11:22:17.651Z,56.91
2019-06-08T11:24:51.817Z,55.97
2019-06-08T11:27:28.513Z,56.50
2019-06-08T11:30:09.847Z,56.45
2019-06-08T11:32:38.356Z,57.61
2019-06-08T11:35:12.362Z,58.51
2019-06-08T11:37:44.347Z,59.23
2019-06-08T11:40:18.163Z,59.72
2019-06-08T11:42:50.514Z,62.32
2019-06-08T11:45:22.799Z,63.18
2019-06-08T11:47:54.915Z,64.65
2019-06-08T11:50:27.388Z,65.78
2019-06-08T11:53:00.623Z,66.38
2019-06-08T11:55:33.613Z,66.28
2019-06-08T11:58:07.548Z,65.90
2019-06-08T12:00:39.824Z,62.38
2019-06-08T12:03:13.044Z,61.06
2019-06-08T12:05:47.749Z,60.34
2019-06-08T12:08:20.952Z,59.77
2019-06-08T12:10:53.486Z,61.12
2019-06-08T12:13:27.819Z,63.64
2019-06-08T12:15:59.829Z,66.74
2019-06-08T12:18:32.269Z,69.69
2019-06-08T12:21:05.587Z,73.13
2019-06-08T12:23:38.226Z,75.23
2019-06-08T12:26:10.794Z,74.63
2019-06-08T12:28:43.039Z,75.78
2019-06-08T12:31:21.412Z,75.95
2019-06-08T12:33:50.527Z,75.38
2019-06-08T12:36:22.840Z,76.08
2019-06-08T12:38:55.863Z,77.61
2019-06-08T12:41:31.180Z,77.41
2019-06-08T12:44:02.054Z,77.87
2019-06-08T12:46:34.327Z,79.44
2019-06-08T12:49:09.494Z,78.54
2019-06-08T12:51:40.547Z,76.92
2019-06-08T12:54:14.218Z,77.17
2019-06-08T12:56:47.948Z,77.36
2019-06-08T12:59:22.825Z,78.44
2019-06-08T13:01:54.573Z,79.03
2019-06-08T13:04:28.662Z,79.22
2019-06-08T13:07:00.638Z,78.35
2019-06-08T13:09:32.886Z,77.05
2019-06-08T13:12:07.736Z,73.01
2019-06-08T13:14:39.138Z,61.65
2019-06-08T13:17:12.766Z,56.64
2019-06-08T13:19:45.323Z,59.57
2019-06-08T13:22:22.604Z,65.66
2019-06-08T13:24:51.517Z,70.08
2019-06-08T13:27:23.746Z,66.43
2019-06-08T13:29:57.764Z,58.84
2019-06-08T13:32:29.902Z,54.47
2019-06-08T13:35:02.304Z,48.64
2019-06-08T13:37:35.495Z,46.83
2019-06-08T13:40:08.199Z,44.29
2019-06-08T13:42:41.166Z,42.73
2019-06-08T13:45:14.043Z,40.18
2019-06-08T13:47:50.214Z,38.07
2019-06-08T13:50:22.799Z,39.18
2019-06-08T13:52:56.076Z,38.92
2019-06-08T13:55:47.686Z,37.45
2019-06-08T13:58:03.574Z,36.32
2019-06-08T14:00:38.441Z,32.76
2019-06-08T14:03:11.026Z,32.60
2019-06-08T14:05:43.842Z,32.43
2019-06-08T14:08:19.153Z,31.82
2019-06-08T14:10:51.140Z,37.53
2019-06-08T14:13:31.146Z,40.12
2019-06-08T14:16:00.152Z,43.95
2019-06-08T14:18:34.306Z,44.71
2019-06-08T14:21:06.335Z,46.30
2019-06-08T14:23:41.349Z,46.65
2019-06-08T14:26:12.515Z,48.22
2019-06-08T14:28:44.850Z,46.14
2019-06-08T14:31:19.705Z,47.88
2019-06-08T14:33:52.083Z,46.90
2019-06-08T14:36:25.825Z,46.38
2019-06-08T14:39:01.876Z,45.83
2019-06-08T14:41:32.231Z,44.95
2019-06-08T14:44:04.671Z,45.09
2019-06-08T14:46:40.819Z,46.42
2019-06-08T14:49:10.863Z,46.58
2019-06-08T14:51:43.200Z,46.42
2019-06-08T14:54:18.519Z,44.43
2019-06-08T14:56:49.665Z,45.40
2019-06-08T14:59:22.565Z,44.97
2019-06-08T15:01:55.835Z,46.88
2019-06-08T15:04:34.144Z,46.45
2019-06-08T15:07:02.038Z,45.24
2019-06-08T15:09:34.348Z,44.14
2019-06-08T15:12:09.032Z,46.08
2019-06-08T15:14:41.577Z,46.01
2019-06-08T15:17:13.796Z,45.08
2019-06-08T15:19:47.558Z,46.31
2019-06-08T15:22:20.845Z,45.70
2019-06-08T15:24:53.470Z,47.50
2019-06-08T15:27:26.497Z,45.29
2019-06-08T15:29:59.784Z,45.37
2019-06-08T15:32:35.084Z,44.30
2019-06-08T15:35:08.074Z,45.12
2019-06-08T15:37:40.924Z,46.03
2019-06-08T15:40:13.371Z,44.10
2019-06-08T15:42:48.734Z,45.95
2019-06-08T15:45:22.081Z,45.59
2019-06-08T15:47:54.331Z,45.46
2019-06-08T15:50:26.580Z,46.88
2019-06-08T15:53:00.159Z,47.28
2019-06-08T15:55:34.399Z,47.57
2019-06-08T15:58:08.775Z,45.97
2019-06-08T16:00:40.567Z,45.06
2019-06-08T16:03:12.776Z,46.63
2019-06-08T16:05:45.046Z,45.46
2019-06-08T16:08:17.254Z,45.33
2019-06-08T16:10:49.479Z,44.40
2019-06-08T16:13:21.892Z,43.70
2019-06-08T16:15:54.115Z,42.67
2019-06-08T16:18:27.373Z,43.76
2019-06-08T16:20:59.650Z,43.34
2019-06-08T16:23:31.960Z,43.50
2019-06-08T16:26:04.179Z,43.49
2019-06-08T16:28:38.652Z,42.78
2019-06-08T16:31:11.158Z,42.87
2019-06-08T16:33:44.335Z,45.02
2019-06-08T16:36:16.891Z,44.29
2019-06-08T16:38:52.639Z,43.34
2019-06-08T16:41:23.091Z,42.13
2019-06-08T16:43:55.521Z,42.81
2019-06-08T16:46:30.036Z,41.50
2019-06-08T16:49:02.376Z,40.47
2019-06-08T16:51:35.802Z,42.61
2019-06-08T16:54:08.103Z,39.82
2019-06-08T16:56:40.367Z,39.42
2019-06-08T16:59:12.617Z,34.53
2019-06-08T17:01:44.926Z,32.10
2019-06-08T17:04:17.200Z,31.77
2019-06-08T17:06:49.439Z,33.77
2019-06-08T17:09:21.716Z,30.29
2019-06-08T17:11:54.611Z,28.78
2019-06-08T17:14:27.502Z,27.47
2019-06-08T17:17:00.346Z,26.58
2019-06-08T17:19:34.122Z,26.34
2019-06-08T17:22:07.067Z,26.85
2019-06-08T17:24:40.736Z,25.96
2019-06-08T17:27:26.410Z,26.03
2019-06-08T17:29:48.200Z,26.50
2019-06-08T17:32:20.437Z,28.31
2019-06-08T17:34:52.693Z,31.52
2019-06-08T17:37:24.898Z,34.15
2019-06-08T17:39:57.103Z,36.05
2019-06-08T17:42:29.350Z,37.25
2019-06-08T17:45:03.668Z,39.41
2019-06-08T17:47:36.369Z,40.61
2019-06-08T17:50:08.747Z,42.14
2019-06-08T17:52:41.130Z,42.00
2019-06-08T17:55:13.539Z,42.27
2019-06-08T17:57:52.715Z,42.22
2019-06-08T18:00:19.845Z,44.16
2019-06-08T18:02:52.047Z,44.00
2019-06-08T18:05:24.268Z,43.44
2019-06-08T18:07:57.852Z,43.24
2019-06-08T18:10:30.264Z,42.31
2019-06-08T18:13:02.530Z,39.73
2019-06-08T18:15:34.732Z,39.16
2019-06-08T18:18:08.677Z,38.69
2019-06-08T18:20:42.421Z,38.69
2019-06-08T18:23:17.390Z,40.77
2019-06-08T18:25:49.720Z,41.93
2019-06-08T18:28:22.105Z,43.34
2019-06-08T18:30:54.361Z,44.27
2019-06-08T18:33:28.806Z,44.93
2019-06-08T18:36:01.098Z,45.87
2019-06-08T18:38:33.320Z,45.63
2019-06-08T18:41:08.365Z,46.66
2019-06-08T18:43:41.519Z,45.94
2019-06-08T18:46:14.726Z,46.15
2019-06-08T18:48:49.325Z,46.86
2019-06-08T18:51:21.027Z,47.78
2019-06-08T18:54:07.408Z,47.97
2019-06-08T18:56:27.586Z,49.23
2019-06-08T18:59:00.169Z,49.84
2019-06-08T19:01:32.443Z,49.81
2019-06-08T19:04:04.715Z,50.58
2019-06-08T19:06:39.177Z,51.50
2019-06-08T19:09:12.319Z,51.64
2019-06-08T19:11:46.341Z,52.18
2019-06-08T19:14:20.882Z,51.39
2019-06-08T19:16:54.740Z,50.85
2019-06-08T19:19:31.059Z,51.37
2019-06-08T19:22:00.643Z,51.00
2019-06-08T19:24:33.026Z,51.28
2019-06-08T19:27:07.695Z,51.54
2019-06-08T19:29:41.795Z,52.47
2019-06-08T19:32:13.180Z,53.06
2019-06-08T19:34:52.332Z,53.25
2019-06-08T19:37:19.301Z,53.05
2019-06-08T19:39:51.950Z,54.43
2019-06-08T19:42:37.037Z,54.42
2019-06-08T19:45:04.878Z,54.63
2019-06-08T19:47:32.122Z,55.28
2019-06-08T19:50:04.398Z,55.08
2019-06-08T19:52:41.063Z,55.33
2019-06-08T19:55:10.563Z,54.99
2019-06-08T19:57:43.347Z,55.68
2019-06-08T20:00:17.887Z,55.81
2019-06-08T20:02:53.374Z,55.94
2019-06-08T20:05:23.518Z,56.45
2019-06-08T20:07:57.450Z,56.37
2019-06-08T20:10:29.701Z,56.54
2019-06-08T20:13:02.017Z,57.62
2019-06-08T20:15:34.245Z,58.48
2019-06-08T20:18:06.469Z,58.14
2019-06-08T20:20:38.767Z,58.78
2019-06-08T20:23:10.995Z,58.41
2019-06-08T20:25:43.249Z,58.48
2019-06-08T20:28:17.331Z,58.45
2019-06-08T20:30:50.686Z,59.04
2019-06-08T20:33:22.946Z,58.67
2019-06-08T20:35:55.182Z,58.41
2019-06-08T20:38:37.871Z,58.82
2019-06-08T20:41:01.352Z,58.40
2019-06-08T20:43:33.597Z,58.07
2019-06-08T20:46:07.989Z,59.10
2019-06-08T20:48:39.771Z,58.89
2019-06-08T20:51:12.038Z,59.47
2019-06-08T20:53:44.512Z,59.24
2019-06-08T20:56:17.383Z,59.27
2019-06-08T20:58:51.373Z,59.65
2019-06-08T21:01:23.840Z,59.31
2019-06-08T21:03:57.165Z,60.01
2019-06-08T21:06:29.595Z,59.32
2019-06-08T21:09:01.818Z,59.37
2019-06-08T21:11:37.935Z,59.31
2019-06-08T21:14:09.624Z,59.48
2019-06-08T21:16:44.652Z,59.29
2019-06-08T21:19:17.455Z,59.13
2019-06-08T21:21:52.093Z,59.64
2019-06-08T21:24:23.841Z,59.97
2019-06-08T21:27:00.167Z,59.99
2019-06-08T21:29:47.160Z,59.95
2019-06-08T21:32:05.102Z,60.08
2019-06-08T21:34:38.049Z,60.43
2019-06-08T21:37:10.485Z,60.80
2019-06-08T21:39:42.857Z,61.07
2019-06-08T21:42:15.183Z,61.33
2019-06-08T21:44:49.024Z,61.38
2019-06-08T21:47:21.444Z,60.89
2019-06-08T21:49:54.233Z,61.31
2019-06-08T21:52:26.556Z,61.48
2019-06-08T21:54:59.396Z,61.79
2019-06-08T21:57:36.968Z,61.49
2019-06-08T22:00:27.112Z,61.24
2019-06-08T22:02:44.506Z,61.43
2019-06-08T22:05:17.825Z,61.59
2019-06-08T22:07:50.205Z,61.51
2019-06-08T22:10:23.419Z,61.72
2019-06-08T22:12:58.047Z,61.20
2019-06-08T22:15:29.791Z,61.37
2019-06-08T22:18:03.236Z,61.56
2019-06-08T22:20:38.097Z,61.53
2019-06-08T22:23:09.565Z,61.17
2019-06-08T22:25:41.646Z,61.82
2019-06-08T22:28:13.890Z,62.32
2019-06-08T22:30:48.082Z,61.98
2019-06-08T22:33:20.044Z,62.00
2019-06-08T22:35:53.018Z,61.68
2019-06-08T22:38:26.476Z,62.01
2019-06-08T22:41:00.279Z,61.31
2019-06-08T22:43:32.640Z,61.77
2019-06-08T22:46:04.903Z,61.82
2019-06-08T22:48:38.428Z,62.36
2019-06-08T22:51:13.096Z,62.97
2019-06-08T22:53:47.683Z,62.39
2019-06-08T22:56:19.458Z,62.60
2019-06-08T22:58:51.798Z,62.46
2019-06-08T23:01:24.262Z,62.45
2019-06-08T23:04:00.224Z,63.00
2019-06-08T23:06:30.441Z,62.67
2019-06-08T23:09:04.126Z,63.21
2019-06-08T23:11:37.584Z,62.82
2019-06-08T23:14:13.458Z,63.19
2019-06-08T23:16:47.073Z,64.39
2019-06-08T23:19:18.885Z,64.17
2019-06-08T23:21:51.125Z,65.12
2019-06-08T23:24:23.322Z,65.27
2019-06-08T23:26:55.843Z,64.73
2019-06-08T23:29:28.063Z,65.67
2019-06-08T23:32:02.623Z,65.28
2019-06-08T23:34:34.267Z,64.91
2019-06-08T23:37:12.734Z,65.30
2019-06-08T23:39:42.755Z,65.42
2019-06-08T23:42:14.977Z,65.66
2019-06-08T23:44:47.243Z,66.17
2019-06-08T23:47:19.439Z,65.91
2019-06-08T23:49:51.684Z,66.16
2019-06-08T23:52:23.936Z,66.14
2019-06-08T23:54:59.441Z,66.33
2019-06-08T23:57:31.219Z,66.55
